| time (UTC) | temp C | wind direction | speed KPH | gust KPH | rain 1hr cm | rain 24hr cm | rain mn cm | humidity % | barometer mb |
| 20260906022257 | 23 | 112 | 0.0 | 0.0 | 0.00 | 0.69 | 0.69 | 89 | 1048.0 |
| 20260906021753 | 23 | 109 | 0.0 | 0.0 | 0.00 | 0.69 | 0.69 | 88 | 1048.2 |
| 20260906021251 | 23 | 107 | 0.0 | 0.0 | 0.00 | 0.69 | 0.69 | 88 | 1048.0 |
| 20260906020746 | 23 | 114 | 0.0 | 0.0 | 0.00 | 0.69 | 0.69 | 87 | 1048.0 |
| 20260906020246 | 23 | 107 | 0.0 | 0.0 | 0.00 | 0.69 | 0.69 | 88 | 1047.9 |
| 20260906015741 | 24 | 77 | 0.0 | 0.0 | 0.00 | 0.69 | 0.69 | 88 | 1048.1 |
| 20260906015240 | 24 | 64 | 0.0 | 0.0 | 0.00 | 0.69 | 0.69 | 85 | 1047.9 |
| 20260906014740 | 24 | 106 | 0.0 | 0.0 | 0.00 | 0.69 | 0.69 | 84 | 1047.8 |
| 20260906014235 | 24 | 107 | 0.0 | 0.0 | 0.00 | 0.69 | 0.69 | 86 | 1047.9 |
| 20260906013731 | 24 | 103 | 0.0 | 0.0 | 0.00 | 0.69 | 0.69 | 87 | 1047.9 |
| 20260906013231 | 24 | 115 | 0.0 | 0.0 | 0.00 | 0.69 | 0.69 | 90 | 1047.9 |
| 20260906012726 | 24 | 115 | 0.0 | 0.0 | 0.00 | 0.69 | 0.69 | 91 | 1047.7 |
| 20260906012221 | 24 | 119 | 0.0 | 0.0 | 0.00 | 0.69 | 0.69 | 90 | 1047.8 |
| 20260906011717 | 24 | 113 | 0.0 | 0.0 | 0.00 | 0.69 | 0.69 | 90 | 1047.5 |
| 20260906011211 | 25 | 112 | 0.0 | 0.0 | 0.00 | 0.69 | 0.69 | 89 | 1047.4 |
| 20260906010707 | 25 | 115 | 0.0 | 0.0 | 0.00 | 0.69 | 0.69 | 88 | 1047.5 |
| 20260906010203 | 25 | 127 | 0.0 | 0.0 | 0.00 | 0.69 | 0.69 | 88 | 1047.5 |
| 20260906005702 | 25 | 112 | 0.0 | 0.0 | 0.00 | 0.69 | 0.69 | 87 | 1047.3 |
| 20260906005202 | 25 | 97 | 0.0 | 0.0 | 0.00 | 0.69 | 0.69 | 86 | 1047.1 |
| 20260906004701 | 26 | 115 | 0.0 | 0.0 | 0.00 | 0.69 | 0.69 | 86 | 1047.4 |
| 20260906004156 | 26 | 110 | 0.0 | 0.0 | 0.00 | 0.69 | 0.69 | 86 | 1047.1 |
| 20260906003652 | 26 | 105 | 0.0 | 0.0 | 0.00 | 0.69 | 0.69 | 85 | 1047.1 |
| 20260906003148 | 26 | 112 | 0.0 | 0.0 | 0.00 | 0.69 | 0.69 | 85 | 1047.4 |
| 20260906002647 | 26 | 108 | 0.0 | 0.0 | 0.00 | 0.69 | 0.69 | 84 | 1046.9 |
| 20260906002142 | 26 | 96 | 0.0 | 0.0 | 0.00 | 0.69 | 0.69 | 84 | 1046.8 |
| 20260906001637 | 27 | 113 | 0.0 | 0.0 | 0.00 | 0.69 | 0.69 | 83 | 1047.3 |
| 20260906001137 | 27 | 111 | 0.0 | 0.0 | 0.00 | 0.69 | 0.69 | 82 | 1047.7 |
| 20260906000633 | 27 | 111 | 0.0 | 0.0 | 0.00 | 0.69 | 0.69 | 80 | 1047.4 |
| 20260906000128 | 27 | 109 | 0.0 | 0.0 | 0.00 | 0.69 | 0.69 | 79 | 1047.6 |
| 20260905235627 | 28 | 115 | 0.0 | 0.0 | 0.00 | 0.69 | 0.69 | 78 | 1047.7 |
| 20260905235123 | 28 | 112 | 0.0 | 0.0 | 0.00 | 0.69 | 0.69 | 78 | 1047.8 |
| 20260905234618 | 28 | 113 | 0.0 | 0.0 | 0.00 | 0.69 | 0.69 | 77 | 1047.8 |
| 20260905234114 | 29 | 109 | 0.0 | 0.0 | 0.00 | 0.69 | 0.69 | 74 | 1047.7 |
| 20260905233613 | 30 | 116 | 0.0 | 0.0 | 0.00 | 0.69 | 0.69 | 73 | 1047.7 |
| 20260905233108 | 30 | 135 | 0.0 | 0.0 | 0.00 | 0.69 | 0.69 | 72 | 1047.7 |
| 20260905232603 | 30 | 111 | 0.0 | 0.0 | 0.00 | 0.69 | 0.69 | 65 | 1047.7 |
| 20260905232059 | 31 | 114 | 0.0 | 0.0 | 0.00 | 0.69 | 0.69 | 67 | 1048.0 |
| 20260905231554 | 31 | 115 | 0.0 | 0.0 | 0.00 | 0.69 | 0.69 | 68 | 1048.0 |
| 20260905231050 | 31 | 115 | 0.0 | 0.0 | 0.00 | 0.69 | 0.69 | 67 | 1047.9 |
| 20260905230550 | 31 | 107 | 0.0 | 0.0 | 0.00 | 0.69 | 0.69 | 64 | 1047.6 |
| 20260905230048 | 32 | 109 | 0.0 | 0.0 | 0.00 | 0.69 | 0.69 | 58 | 1047.8 |
| 20260905225543 | 32 | 110 | 0.0 | 0.0 | 0.00 | 0.69 | 0.69 | 59 | 1047.9 |
| 20260905225038 | 33 | 114 | 0.0 | 0.0 | 0.00 | 0.69 | 0.69 | 59 | 1047.8 |
| 20260905224538 | 33 | 115 | 0.0 | 0.0 | 0.00 | 0.69 | 0.69 | 60 | 1047.7 |
| 20260905224037 | 33 | 115 | 0.0 | 0.0 | 0.00 | 0.69 | 0.69 | 60 | 1047.7 |
| 20260905223535 | 32 | 116 | 0.0 | 0.0 | 0.00 | 0.69 | 0.69 | 56 | 1047.8 |
| 20260905223031 | 32 | 112 | 0.0 | 1.6 | 0.00 | 0.69 | 0.69 | 59 | 1047.8 |
| 20260905222530 | 32 | 87 | 1.6 | 4.8 | 0.00 | 0.69 | 0.69 | 57 | 1047.7 |
| 20260905222026 | 33 | 206 | 3.2 | 6.4 | 0.00 | 0.69 | 0.69 | 53 | 1047.8 |
| 20260905221522 | 33 | 349 | 6.4 | 6.4 | 0.00 | 0.69 | 0.69 | 52 | 1047.8 |
| 20260905221018 | 34 | 163 | 1.6 | 4.8 | 0.00 | 0.69 | 0.69 | 51 | 1047.6 |
| 20260905220514 | 34 | 174 | 1.6 | 1.6 | 0.00 | 0.69 | 0.69 | 50 | 1047.9 |
| 20260905220009 | 33 | 357 | 3.2 | 3.2 | 0.00 | 0.69 | 0.69 | 53 | 1047.8 |
| 20260905215504 | 33 | 164 | 3.2 | 4.8 | 0.00 | 0.69 | 0.69 | 51 | 1047.7 |
| 20260905215000 | 34 | 186 | 3.2 | 4.8 | 0.00 | 0.69 | 0.69 | 50 | 1047.6 |
| 20260905214455 | 34 | 221 | 3.2 | 4.8 | 0.00 | 0.69 | 0.69 | 54 | 1047.8 |
| 20260905213955 | 34 | 176 | 4.8 | 6.4 | 0.00 | 0.69 | 0.69 | 50 | 1047.4 |
| 20260905213452 | 33 | 238 | 6.4 | 6.4 | 0.00 | 0.69 | 0.69 | 50 | 1047.6 |
| 20260905212946 | 34 | 243 | 8.0 | 11.3 | 0.00 | 0.69 | 0.69 | 50 | 1047.5 |
| 20260905212441 | 34 | 241 | 8.0 | 9.7 | 0.00 | 0.69 | 0.69 | 47 | 1047.4 |
| 20260905211940 | 34 | 159 | 3.2 | 4.8 | 0.00 | 0.69 | 0.69 | 48 | 1047.5 |
| 20260905211436 | 34 | 185 | 3.2 | 4.8 | 0.00 | 0.69 | 0.69 | 50 | 1047.6 |
| 20260905210932 | 34 | 250 | 6.4 | 6.4 | 0.00 | 0.69 | 0.69 | 46 | 1047.8 |
| 20260905210432 | 34 | 155 | 3.2 | 4.8 | 0.00 | 0.69 | 0.69 | 47 | 1047.5 |
| 20260905205932 | 34 | 159 | 3.2 | 4.8 | 0.00 | 0.69 | 0.69 | 50 | 1047.5 |
| 20260905205427 | 34 | 179 | 3.2 | 6.4 | 0.00 | 0.69 | 0.69 | 48 | 1047.7 |
| 20260905204926 | 34 | 200 | 3.2 | 9.7 | 0.00 | 0.69 | 0.69 | 48 | 1047.5 |
| 20260905204422 | 33 | 215 | 4.8 | 9.7 | 0.00 | 0.69 | 0.69 | 48 | 1047.5 |
| 20260905203921 | 34 | 166 | 4.8 | 9.7 | 0.00 | 0.69 | 0.69 | 50 | 1047.6 |
| 20260905203416 | 34 | 223 | 4.8 | 9.7 | 0.00 | 0.69 | 0.69 | 49 | 1047.7 |
| 20260905202912 | 34 | 172 | 3.2 | 4.8 | 0.00 | 0.69 | 0.69 | 45 | 1047.8 |
| 20260905202407 | 34 | 139 | 3.2 | 6.4 | 0.00 | 0.69 | 0.69 | 50 | 1047.9 |
| 20260905201903 | 34 | 133 | 4.8 | 6.4 | 0.00 | 0.69 | 0.69 | 46 | 1048.1 |
| 20260905201358 | 34 | 138 | 1.6 | 3.2 | 0.00 | 0.69 | 0.69 | 45 | 1048.2 |
| 20260905200857 | 34 | 183 | 6.4 | 6.4 | 0.00 | 0.69 | 0.69 | 45 | 1048.1 |
| 20260905200353 | 34 | 137 | 3.2 | 6.4 | 0.00 | 0.69 | 0.69 | 46 | 1048.2 |
| 20260905195851 | 34 | 126 | 1.6 | 3.2 | 0.00 | 0.69 | 0.69 | 44 | 1048.1 |
| 20260905195347 | 34 | 179 | 3.2 | 6.4 | 0.00 | 0.69 | 0.69 | 44 | 1048.3 |
| 20260905194842 | 34 | 86 | 4.8 | 4.8 | 0.00 | 0.69 | 0.69 | 44 | 1048.3 |
| 20260905194342 | 34 | 146 | 1.6 | 3.2 | 0.00 | 0.69 | 0.69 | 47 | 1048.6 |
| 20260905193841 | 34 | 109 | 0.0 | 3.2 | 0.00 | 0.69 | 0.69 | 47 | 1048.6 |
| 20260905193336 | 33 | 197 | 4.8 | 9.7 | 0.00 | 0.69 | 0.69 | 44 | 1048.6 |
| 20260905192832 | 33 | 199 | 4.8 | 6.4 | 0.00 | 0.69 | 0.69 | 47 | 1048.9 |
| 20260905192328 | 33 | 153 | 3.2 | 4.8 | 0.00 | 0.69 | 0.69 | 45 | 1048.6 |
| 20260905191827 | 34 | 80 | 6.4 | 11.3 | 0.00 | 0.69 | 0.69 | 46 | 1048.8 |
| 20260905191326 | 33 | 127 | 1.6 | 1.6 | 0.00 | 0.69 | 0.69 | 47 | 1048.7 |
| 20260905190825 | 33 | 93 | 6.4 | 9.7 | 0.00 | 0.69 | 0.69 | 46 | 1048.7 |
| 20260905190324 | 33 | 105 | 1.6 | 6.4 | 0.00 | 0.69 | 0.69 | 44 | 1048.8 |
| 20260905185823 | 34 | 200 | 4.8 | 4.8 | 0.00 | 0.69 | 0.69 | 45 | 1049.1 |
| 20260905185319 | 34 | 153 | 4.8 | 6.4 | 0.00 | 0.69 | 0.69 | 47 | 1049.0 |
| 20260905184818 | 34 | 116 | 1.6 | 3.2 | 0.00 | 0.69 | 0.69 | 52 | 1049.2 |
| 20260905184317 | 33 | 115 | 0.0 | 3.2 | 0.00 | 0.69 | 0.69 | 46 | 1049.0 |
| 20260905183815 | 33 | 111 | 1.6 | 4.8 | 0.00 | 0.69 | 0.69 | 48 | 1049.2 |
| 20260905183311 | 33 | 152 | 6.4 | 9.7 | 0.00 | 0.69 | 0.69 | 48 | 1049.4 |
| 20260905182806 | 33 | 140 | 1.6 | 4.8 | 0.00 | 0.69 | 0.69 | 51 | 1049.4 |
| 20260905182306 | 33 | 140 | 3.2 | 4.8 | 0.00 | 0.69 | 0.69 | 48 | 1049.3 |
| 20260905181800 | 33 | 132 | 1.6 | 3.2 | 0.00 | 0.69 | 0.69 | 48 | 1049.4 |
| 20260905181255 | 33 | 71 | 3.2 | 6.4 | 0.00 | 0.69 | 0.69 | 50 | 1049.6 |
| 20260905180754 | 33 | 104 | 4.8 | 9.7 | 0.00 | 0.69 | 0.69 | 49 | 1049.6 |
| 20260905180249 | 32 | 117 | 0.0 | 4.8 | 0.00 | 0.69 | 0.69 | 48 | 1049.8 |
| 20260905175744 | 32 | 91 | 8.0 | 12.9 | 0.00 | 0.69 | 0.69 | 49 | 1049.7 |
| 20260905175239 | 32 | 111 | 4.8 | 6.4 | 0.00 | 0.69 | 0.69 | 48 | 1049.8 |
| 20260905174734 | 32 | 101 | 3.2 | 9.7 | 0.00 | 0.69 | 0.69 | 48 | 1049.9 |
| 20260905174229 | 32 | 94 | 1.6 | 4.8 | 0.00 | 0.69 | 0.69 | 48 | 1049.9 |
| 20260905173726 | 32 | 114 | 0.0 | 4.8 | 0.00 | 0.69 | 0.69 | 54 | 1050.0 |
| 20260905173222 | 32 | 89 | 9.7 | 12.9 | 0.00 | 0.69 | 0.69 | 50 | 1049.8 |
| 20260905172721 | 32 | 108 | 3.2 | 4.8 | 0.00 | 0.69 | 0.69 | 49 | 1050.0 |
| 20260905172221 | 32 | 84 | 8.0 | 9.7 | 0.00 | 0.69 | 0.69 | 47 | 1050.0 |
| 20260905171716 | 31 | 143 | 4.8 | 6.4 | 0.00 | 0.69 | 0.69 | 48 | 1050.2 |
| 20260905171212 | 31 | 81 | 4.8 | 9.7 | 0.00 | 0.69 | 0.69 | 49 | 1050.3 |
| 20260905170710 | 31 | 118 | 3.2 | 6.4 | 0.00 | 0.69 | 0.69 | 55 | 1050.3 |
| 20260905170209 | 31 | 84 | 6.4 | 9.7 | 0.00 | 0.69 | 0.69 | 51 | 1050.3 |
| 20260905165709 | 31 | 127 | 3.2 | 4.8 | 0.00 | 0.69 | 0.69 | 50 | 1050.3 |
| 20260905165204 | 31 | 95 | 4.8 | 6.4 | 0.00 | 0.69 | 0.69 | 55 | 1050.4 |
| 20260905164659 | 31 | 101 | 1.6 | 6.4 | 0.00 | 0.69 | 0.69 | 55 | 1050.2 |
| 20260905164159 | 30 | 83 | 6.4 | 11.3 | 0.00 | 0.69 | 0.69 | 52 | 1050.3 |
| 20260905163655 | 30 | 150 | 8.0 | 11.3 | 0.00 | 0.69 | 0.69 | 54 | 1050.4 |
| 20260905163151 | 31 | 63 | 4.8 | 6.4 | 0.00 | 0.69 | 0.69 | 51 | 1050.3 |
| 20260905162647 | 31 | 130 | 1.6 | 4.8 | 0.00 | 0.69 | 0.69 | 58 | 1050.0 |
| 20260905162146 | 30 | 87 | 3.2 | 4.8 | 0.00 | 0.69 | 0.69 | 58 | 1050.3 |
| 20260905161641 | 30 | 127 | 4.8 | 9.7 | 0.00 | 0.69 | 0.69 | 57 | 1050.5 |
| 20260905161139 | 30 | 82 | 6.4 | 6.4 | 0.00 | 0.69 | 0.69 | 60 | 1050.2 |
| 20260905160639 | 30 | 105 | 6.4 | 9.7 | 0.00 | 0.69 | 0.69 | 58 | 1050.4 |
| 20260905160138 | 30 | 125 | 4.8 | 4.8 | 0.00 | 0.69 | 0.69 | 59 | 1050.7 |
| 20260905155632 | 29 | 87 | 3.2 | 9.7 | 0.00 | 0.69 | 0.69 | 62 | 1050.4 |
| 20260905155131 | 28 | 63 | 6.4 | 9.7 | 0.00 | 0.69 | 0.69 | 62 | 1050.4 |
| 20260905154631 | 28 | 70 | 12.9 | 14.5 | 0.00 | 0.69 | 0.69 | 60 | 1050.6 |
| 20260905154127 | 28 | 70 | 6.4 | 12.9 | 0.00 | 0.69 | 0.69 | 63 | 1050.5 |
| 20260905153623 | 28 | 127 | 6.4 | 12.9 | 0.00 | 0.69 | 0.69 | 65 | 1050.8 |
| 20260905153118 | 28 | 96 | 6.4 | 9.7 | 0.00 | 0.69 | 0.69 | 64 | 1050.6 |
| 20260905152613 | 28 | 93 | 4.8 | 6.4 | 0.00 | 0.69 | 0.69 | 63 | 1050.5 |
| 20260905152108 | 27 | 126 | 3.2 | 6.4 | 0.00 | 0.69 | 0.69 | 66 | 1050.8 |
| 20260905151603 | 27 | 81 | 3.2 | 6.4 | 0.00 | 0.69 | 0.69 | 67 | 1050.9 |
| 20260905151058 | 27 | 95 | 4.8 | 9.7 | 0.00 | 0.69 | 0.69 | 66 | 1050.9 |
| 20260905150553 | 27 | 65 | 9.7 | 12.9 | 0.00 | 0.69 | 0.69 | 64 | 1051.0 |
| 20260905150052 | 28 | 92 | 6.4 | 6.4 | 0.00 | 0.69 | 0.69 | 68 | 1051.1 |
| 20260905145550 | 27 | 126 | 3.2 | 4.8 | 0.00 | 0.69 | 0.69 | 66 | 1051.1 |
| 20260905145049 | 27 | 90 | 3.2 | 3.2 | 0.00 | 0.69 | 0.69 | 67 | 1051.1 |
| 20260905144545 | 27 | 93 | 3.2 | 6.4 | 0.00 | 0.69 | 0.69 | 68 | 1051.0 |
| 20260905144044 | 27 | 96 | 4.8 | 4.8 | 0.00 | 0.69 | 0.69 | 69 | 1050.9 |
| 20260905143543 | 27 | 108 | 3.2 | 9.7 | 0.00 | 0.69 | 0.69 | 69 | 1050.9 |
| 20260905143039 | 27 | 71 | 4.8 | 4.8 | 0.00 | 0.69 | 0.69 | 69 | 1051.4 |
| 20260905142537 | 27 | 59 | 4.8 | 4.8 | 0.00 | 0.69 | 0.69 | 67 | 1051.0 |
| 20260905142033 | 26 | 108 | 0.0 | 3.2 | 0.00 | 0.69 | 0.69 | 70 | 1051.2 |
| 20260905141533 | 26 | 113 | 1.6 | 3.2 | 0.00 | 0.69 | 0.69 | 69 | 1051.1 |
| 20260905141030 | 26 | 112 | 1.6 | 3.2 | 0.00 | 0.69 | 0.69 | 71 | 1051.3 |
| 20260905140530 | 26 | 103 | 0.0 | 1.6 | 0.00 | 0.69 | 0.69 | 74 | 1051.1 |
| 20260905140028 | 25 | 115 | 0.0 | 0.0 | 0.00 | 0.69 | 0.69 | 75 | 1051.0 |
| 20260905135524 | 25 | 119 | 0.0 | 3.2 | 0.00 | 0.69 | 0.69 | 82 | 1051.4 |
| 20260905135020 | 24 | 114 | 0.0 | 3.2 | 0.00 | 0.69 | 0.69 | 79 | 1051.2 |
| 20260905134520 | 23 | 102 | 1.6 | 4.8 | 0.00 | 0.69 | 0.69 | 81 | 1051.3 |
| 20260905134018 | 23 | 92 | 1.6 | 3.2 | 0.00 | 0.69 | 0.69 | 83 | 1051.5 |
| 20260905133514 | 22 | 92 | 3.2 | 3.2 | 0.00 | 0.69 | 0.69 | 85 | 1051.7 |
| 20260905133014 | 22 | 86 | 1.6 | 3.2 | 0.00 | 0.69 | 0.69 | 87 | 1052.0 |
| 20260905132508 | 22 | 101 | 1.6 | 3.2 | 0.00 | 0.69 | 0.69 | 88 | 1051.8 |
| 20260905132008 | 22 | 116 | 1.6 | 6.4 | 0.00 | 0.69 | 0.69 | 88 | 1052.0 |
| 20260905131504 | 22 | 67 | 4.8 | 4.8 | 0.00 | 0.69 | 0.69 | 89 | 1051.8 |
| 20260905130959 | 22 | 81 | 1.6 | 1.6 | 0.00 | 0.69 | 0.69 | 90 | 1052.0 |
| 20260905130458 | 22 | 117 | 0.0 | 3.2 | 0.00 | 0.69 | 0.69 | 90 | 1052.0 |
| 20260905125958 | 21 | 97 | 3.2 | 4.8 | 0.00 | 0.69 | 0.69 | 90 | 1052.2 |
| 20260905125453 | 21 | 90 | 3.2 | 11.3 | 0.00 | 0.69 | 0.69 | 90 | 1052.2 |
| 20260905124948 | 21 | 94 | 0.0 | 3.2 | 0.00 | 0.69 | 0.69 | 90 | 1052.0 |
| 20260905124445 | 21 | 99 | 1.6 | 4.8 | 0.00 | 0.69 | 0.69 | 90 | 1052.2 |
| 20260905123940 | 21 | 313 | 3.2 | 9.7 | 0.00 | 0.69 | 0.69 | 89 | 1052.2 |
| 20260905123436 | 21 | 341 | 3.2 | 3.2 | 0.00 | 0.69 | 0.69 | 89 | 1052.0 |
| 20260905122936 | 21 | 303 | 4.8 | 14.5 | 0.00 | 0.69 | 0.69 | 89 | 1052.2 |
| 20260905122437 | 21 | 10 | 9.7 | 12.9 | 0.00 | 0.69 | 0.69 | 91 | 1052.0 |
| 20260905121932 | 21 | 110 | 0.0 | 0.0 | 0.00 | 0.69 | 0.69 | 93 | 1051.3 |
| 20260905121428 | 21 | 108 | 0.0 | 0.0 | 0.00 | 0.69 | 0.69 | 93 | 1051.0 |
| 20260905120926 | 21 | 121 | 0.0 | 0.0 | 0.00 | 0.69 | 0.69 | 92 | 1051.3 |
| 20260905120421 | 21 | 292 | 8.0 | 14.5 | 0.00 | 0.69 | 0.69 | 91 | 1051.5 |
| 20260905115916 | 21 | 113 | 0.0 | 0.0 | 0.00 | 0.69 | 0.69 | 92 | 1051.4 |
| 20260905115415 | 21 | 86 | 3.2 | 14.5 | 0.00 | 0.69 | 0.69 | 94 | 1051.5 |
| 20260905114911 | 21 | 108 | 0.0 | 0.0 | 0.18 | 0.69 | 0.69 | 95 | 1051.5 |
| 20260905114410 | 21 | 110 | 0.0 | 1.6 | 0.18 | 0.69 | 0.69 | 95 | 1051.5 |
| 20260905113909 | 21 | 115 | 0.0 | 0.0 | 0.00 | 0.66 | 0.66 | 95 | 1051.5 |
| 20260905113405 | 21 | 245 | 4.8 | 6.4 | 0.00 | 0.66 | 0.66 | 94 | 1051.4 |
| 20260905112900 | 21 | 80 | 3.2 | 11.3 | 0.00 | 0.66 | 0.66 | 95 | 1050.9 |
| 20260905112355 | 21 | 106 | 0.0 | 0.0 | 0.00 | 0.66 | 0.66 | 94 | 1050.7 |
| 20260905111850 | 21 | 112 | 0.0 | 11.3 | 0.00 | 0.66 | 0.66 | 93 | 1050.9 |
| 20260905111344 | 21 | 99 | 0.0 | 14.5 | 0.00 | 0.66 | 0.66 | 94 | 1050.8 |
| 20260905110844 | 21 | 333 | 4.8 | 12.9 | 0.00 | 0.66 | 0.66 | 93 | 1051.0 |
| 20260905110338 | 21 | 316 | 20.9 | 29.0 | 1.80 | 0.66 | 0.66 | 93 | 1051.0 |
| 20260905105834 | 21 | 324 | 11.3 | 17.7 | 3.07 | 0.64 | 0.64 | 93 | 1050.9 |
| 20260905105333 | 23 | 301 | 22.5 | 27.4 | 1.80 | 0.33 | 0.33 | 91 | 1050.6 |
| 20260905104832 | 23 | 303 | 11.3 | 16.1 | 0.66 | 0.10 | 0.10 | 90 | 1050.9 |
| 20260905104329 | 24 | 279 | 8.0 | 22.5 | 0.18 | 0.03 | 0.03 | 89 | 1050.7 |
| 20260905103828 | 23 | 307 | 6.4 | 9.7 | 0.00 | 0.00 | 0.00 | 92 | 1050.5 |
| 20260905103324 | 23 | 197 | 3.2 | 9.7 | 0.00 | 0.00 | 0.00 | 95 | 1050.0 |
| 20260905102820 | 22 | 297 | 6.4 | 6.4 | 0.00 | 0.00 | 0.00 | 97 | 1050.0 |
| 20260905102317 | 22 | 279 | 4.8 | 11.3 | 0.00 | 0.00 | 0.00 | 97 | 1050.1 |
| 20260905101816 | 21 | 274 | 6.4 | 9.7 | 0.00 | 0.00 | 0.00 | 96 | 1049.8 |
| 20260905101315 | 22 | 144 | 1.6 | 1.6 | 0.00 | 0.00 | 0.00 | 96 | 1049.6 |
| 20260905100809 | 21 | 97 | 1.6 | 1.6 | 0.00 | 0.00 | 0.00 | 96 | 1049.5 |
| 20260905100305 | 21 | 113 | 0.0 | 0.0 | 0.00 | 0.00 | 0.00 | 96 | 1049.5 |
| 20260905095805 | 21 | 112 | 0.0 | 0.0 | 0.00 | 0.00 | 0.00 | 96 | 1049.5 |
| 20260905095306 | 21 | 118 | 0.0 | 1.6 | 0.00 | 0.00 | 0.00 | 96 | 1049.2 |
| 20260905094759 | 21 | 107 | 1.6 | 1.6 | 0.00 | 0.00 | 0.00 | 96 | 1049.5 |
| 20260905094255 | 21 | 114 | 0.0 | 0.0 | 0.00 | 0.00 | 0.00 | 96 | 1049.3 |
| 20260905093754 | 21 | 114 | 0.0 | 0.0 | 0.00 | 0.00 | 0.00 | 96 | 1049.4 |
| 20260905093250 | 22 | 114 | 0.0 | 0.0 | 0.00 | 0.00 | 0.00 | 96 | 1049.2 |
| 20260905092745 | 22 | 114 | 0.0 | 0.0 | 0.00 | 0.00 | 0.00 | 96 | 1049.1 |
| 20260905092241 | 22 | 112 | 0.0 | 0.0 | 0.00 | 0.00 | 0.00 | 96 | 1049.1 |
| 20260905091740 | 22 | 118 | 0.0 | 0.0 | 0.00 | 0.00 | 0.00 | 96 | 1049.4 |
| 20260905091235 | 22 | 124 | 0.0 | 0.0 | 0.00 | 0.00 | 0.00 | 95 | 1049.0 |
| 20260905090734 | 22 | 115 | 0.0 | 0.0 | 0.00 | 0.00 | 0.00 | 95 | 1049.1 |
| 20260905090230 | 22 | 114 | 0.0 | 0.0 | 0.00 | 0.00 | 0.00 | 95 | 1049.4 |
| 20260905085729 | 22 | 116 | 0.0 | 0.0 | 0.00 | 0.00 | 0.00 | 95 | 1049.3 |
| 20260905085225 | 22 | 113 | 0.0 | 0.0 | 0.00 | 0.00 | 0.00 | 95 | 1049.3 |
| 20260905084724 | 22 | 114 | 0.0 | 0.0 | 0.00 | 0.00 | 0.00 | 95 | 1049.1 |
| 20260905084224 | 22 | 110 | 0.0 | 0.0 | 0.00 | 0.00 | 0.00 | 95 | 1049.4 |
| 20260905083719 | 22 | 117 | 0.0 | 0.0 | 0.00 | 0.00 | 0.00 | 95 | 1049.2 |
| 20260905083215 | 22 | 114 | 0.0 | 0.0 | 0.00 | 0.00 | 0.00 | 94 | 1049.2 |
| 20260905082711 | 22 | 112 | 0.0 | 0.0 | 0.00 | 0.00 | 0.00 | 95 | 1049.1 |
| 20260905082206 | 22 | 113 | 0.0 | 0.0 | 0.00 | 0.00 | 0.00 | 96 | 1049.1 |
| 20260905081706 | 22 | 112 | 0.0 | 0.0 | 0.00 | 0.00 | 0.00 | 95 | 1049.1 |
| 20260905081201 | 22 | 112 | 0.0 | 0.0 | 0.00 | 0.00 | 0.00 | 95 | 1049.0 |
| 20260905080701 | 22 | 112 | 0.0 | 0.0 | 0.00 | 0.00 | 0.00 | 96 | 1049.1 |
| 20260905080201 | 22 | 114 | 0.0 | 0.0 | 0.00 | 0.00 | 0.00 | 95 | 1049.1 |
| 20260905075700 | 22 | 111 | 0.0 | 1.6 | 0.00 | 0.00 | 0.00 | 95 | 1049.3 |
| 20260905075159 | 22 | 108 | 0.0 | 0.0 | 0.00 | 0.00 | 0.00 | 95 | 1049.1 |
| 20260905074658 | 22 | 113 | 0.0 | 0.0 | 0.00 | 0.00 | 0.00 | 95 | 1049.2 |
| 20260905074154 | 22 | 114 | 0.0 | 0.0 | 0.00 | 0.00 | 0.00 | 95 | 1049.2 |
| 20260905073650 | 22 | 109 | 1.6 | 1.6 | 0.00 | 0.00 | 0.00 | 95 | 1049.1 |
| 20260905073145 | 22 | 116 | 0.0 | 0.0 | 0.00 | 0.00 | 0.00 | 95 | 1049.3 |
| 20260905072644 | 22 | 116 | 0.0 | 0.0 | 0.00 | 0.00 | 0.00 | 95 | 1049.5 |
| 20260905072140 | 22 | 114 | 0.0 | 0.0 | 0.00 | 0.00 | 0.00 | 95 | 1049.4 |
| 20260905071636 | 22 | 108 | 0.0 | 0.0 | 0.00 | 0.00 | 0.00 | 95 | 1049.3 |
| 20260905071131 | 22 | 110 | 0.0 | 0.0 | 0.00 | 0.00 | 0.00 | 95 | 1049.5 |
| 20260905070627 | 22 | 107 | 0.0 | 0.0 | 0.00 | 0.00 | 0.00 | 95 | 1049.5 |
| 20260905070123 | 22 | 109 | 0.0 | 0.0 | 0.00 | 0.00 | 0.00 | 95 | 1049.7 |
| 20260905065621 | 22 | 116 | 0.0 | 0.0 | 0.00 | 0.00 | 0.00 | 95 | 1049.8 |
| 20260905065116 | 22 | 113 | 0.0 | 0.0 | 0.00 | 0.00 | 0.00 | 94 | 1049.7 |
| 20260905064611 | 22 | 113 | 0.0 | 0.0 | 0.00 | 0.00 | 0.00 | 94 | 1050.0 |
| 20260905064106 | 22 | 112 | 0.0 | 0.0 | 0.00 | 0.00 | 0.00 | 94 | 1050.0 |
| 20260905063605 | 22 | 113 | 0.0 | 0.0 | 0.00 | 0.00 | 0.00 | 95 | 1049.8 |
| 20260905063102 | 22 | 111 | 0.0 | 0.0 | 0.00 | 0.00 | 0.00 | 95 | 1049.8 |
| 20260905062557 | 22 | 105 | 0.0 | 0.0 | 0.00 | 0.00 | 0.00 | 95 | 1050.1 |
| 20260905062056 | 22 | 101 | 1.6 | 1.6 | 0.00 | 0.00 | 0.00 | 94 | 1049.9 |
| 20260905061551 | 22 | 115 | 0.0 | 0.0 | 0.00 | 0.00 | 0.00 | 94 | 1050.0 |
| 20260905061050 | 22 | 111 | 0.0 | 0.0 | 0.00 | 0.00 | 0.00 | 95 | 1050.2 |
| 20260905060547 | 22 | 113 | 0.0 | 0.0 | 0.00 | 0.00 | 0.00 | 94 | 1050.2 |
| 20260905060042 | 22 | 110 | 0.0 | 0.0 | 0.00 | 0.00 | 0.00 | 94 | 1050.1 |
| 20260905055541 | 22 | 113 | 0.0 | 0.0 | 0.00 | 0.00 | 0.00 | 94 | 1050.2 |
| 20260905055036 | 22 | 114 | 0.0 | 0.0 | 0.00 | 0.00 | 0.00 | 94 | 1050.4 |
| 20260905054531 | 22 | 109 | 0.0 | 0.0 | 0.00 | 0.00 | 0.00 | 94 | 1050.2 |
| 20260905054027 | 22 | 111 | 0.0 | 0.0 | 0.00 | 0.00 | 0.00 | 94 | 1050.5 |
| 20260905053526 | 22 | 138 | 1.6 | 1.6 | 0.00 | 0.00 | 0.00 | 93 | 1050.4 |
| 20260905053022 | 22 | 126 | 0.0 | 0.0 | 0.00 | 0.00 | 0.00 | 94 | 1050.4 |
| 20260905052521 | 23 | 117 | 0.0 | 0.0 | 0.00 | 0.00 | 0.00 | 94 | 1050.6 |
| 20260905052016 | 22 | 111 | 0.0 | 0.0 | 0.00 | 0.00 | 0.00 | 94 | 1050.7 |
| 20260905051512 | 23 | 111 | 0.0 | 0.0 | 0.00 | 0.00 | 0.00 | 93 | 1050.5 |
| 20260905051009 | 23 | 110 | 0.0 | 0.0 | 0.00 | 0.00 | 0.00 | 94 | 1050.5 |
| 20260905050504 | 23 | 112 | 0.0 | 0.0 | 0.00 | 0.00 | 0.00 | 93 | 1050.8 |
| 20260905050001 | 23 | 131 | 1.6 | 1.6 | 0.00 | 0.00 | 0.00 | 93 | 1050.6 |
| 20260905045455 | 23 | 111 | 0.0 | 0.0 | 0.00 | 0.00 | 0.00 | 93 | 1050.9 |
| 20260905044951 | 23 | 108 | 0.0 | 0.0 | 0.00 | 0.00 | 0.00 | 93 | 1050.5 |
| 20260905044451 | 23 | 115 | 0.0 | 0.0 | 0.00 | 0.00 | 0.00 | 92 | 1050.6 |
| 20260905043945 | 23 | 120 | 0.0 | 0.0 | 0.00 | 0.00 | 0.00 | 92 | 1050.5 |
| 20260905043444 | 23 | 109 | 0.0 | 0.0 | 0.00 | 0.00 | 0.00 | 92 | 1050.4 |
| 20260905042939 | 23 | 101 | 0.0 | 0.0 | 0.00 | 0.00 | 0.00 | 92 | 1050.6 |
| 20260905042439 | 23 | 115 | 0.0 | 0.0 | 0.00 | 0.00 | 0.00 | 91 | 1050.5 |
| 20260905041934 | 23 | 118 | 0.0 | 0.0 | 0.00 | 0.00 | 0.00 | 92 | 1050.8 |
| 20260905041430 | 23 | 119 | 0.0 | 0.0 | 0.00 | 0.00 | 0.00 | 91 | 1050.8 |
| 20260905040925 | 23 | 125 | 0.0 | 0.0 | 0.00 | 0.00 | 0.00 | 90 | 1050.5 |
| 20260905040424 | 23 | 107 | 0.0 | 0.0 | 0.00 | 0.00 | 0.00 | 90 | 1050.7 |
| 20260905035923 | 24 | 123 | 0.0 | 0.0 | 0.00 | 0.00 | 0.00 | 89 | 1050.3 |
| 20260905035419 | 24 | 114 | 0.0 | 0.0 | 0.00 | 0.00 | 0.00 | 89 | 1050.6 |
| 20260905034916 | 24 | 114 | 0.0 | 0.0 | 0.00 | 0.00 | 0.00 | 89 | 1050.5 |
| 20260905034411 | 23 | 101 | 1.6 | 1.6 | 0.00 | 0.00 | 0.00 | 90 | 1050.7 |
| 20260905033909 | 23 | 96 | 1.6 | 3.2 | 0.00 | 0.00 | 0.00 | 91 | 1050.6 |
| 20260905033405 | 23 | 118 | 0.0 | 0.0 | 0.00 | 0.00 | 0.00 | 91 | 1050.7 |
| 20260905032904 | 23 | 113 | 0.0 | 0.0 | 0.00 | 0.00 | 0.00 | 91 | 1050.9 |
| 20260905032400 | 23 | 116 | 0.0 | 0.0 | 0.00 | 0.00 | 0.00 | 90 | 1050.7 |
| 20260905031854 | 24 | 117 | 0.0 | 0.0 | 0.00 | 0.00 | 0.00 | 89 | 1050.8 |
| 20260905031350 | 24 | 93 | 1.6 | 1.6 | 0.00 | 0.00 | 0.00 | 90 | 1050.7 |
| 20260905030845 | 23 | 113 | 1.6 | 3.2 | 0.00 | 0.00 | 0.00 | 90 | 1050.7 |
| 20260905030341 | 24 | 124 | 1.6 | 1.6 | 0.00 | 0.00 | 0.00 | 89 | 1050.8 |
| 20260905025840 | 24 | 98 | 0.0 | 0.0 | 0.00 | 0.00 | 0.00 | 90 | 1050.7 |
| 20260905025336 | 23 | 326 | 3.2 | 4.8 | 0.00 | 0.00 | 0.00 | 90 | 1050.7 |
| 20260905024832 | 23 | 110 | 0.0 | 0.0 | 0.00 | 0.00 | 0.00 | 91 | 1050.6 |
| 20260905024327 | 23 | 94 | 0.0 | 0.0 | 0.00 | 0.00 | 0.00 | 90 | 1050.7 |
| 20260905023822 | 23 | 99 | 0.0 | 0.0 | 0.00 | 0.00 | 0.00 | 90 | 1050.4 |
| 20260905023318 | 23 | 107 | 0.0 | 0.0 | 0.00 | 0.00 | 0.00 | 90 | 1050.3 |
| 20260905022816 | 24 | 111 | 0.0 | 0.0 | 0.00 | 0.00 | 0.00 | 90 | 1050.5 |